Tutti
Milingimbi Airport (Millingimbi, Northern Territory) MGT Meteo
|
Millingimbi, Northern Territory (MGT / YMGB)
Cielo sereno
Venti leggeri |
|
27 °C |
There is no TAF data available at MGT or any nearby airports.
Storico METAR MGT recente
| Date | Time (ACST) | Flight Rules | Wind Dir. | Speed | Type | Height AGL (ft) | Visibility | Temp (°C) | Temp (°F) | Dew Point (°C) | Dew Point (°F) | Rel. Humid. | Pressure | Density Altitude | Remarks |
|---|---|---|---|---|---|---|---|---|---|---|---|---|---|---|---|
| 02-mag | 23:30 | n/a | 110° | 6 kt | Missing | 27° | 80° | 23° | 73° | 79% | 1011 mb | 1.558 ft | |||
| 02-mag | 22:30 | n/a | 120° | 4 kt | Missing | 27° | 80° | 23° | 73° | 79% | 1011 mb | 1.558 ft | |||
| 02-mag | 21:30 | n/a | 140° | 5 kt | Missing | 28° | 82° | 24° | 75° | 79% | 1011 mb | 1.678 ft | |||
| 02-mag | 20:30 | n/a | 80° | 3 kt | Missing | 28° | 82° | 25° | 77° | 84% | 1010 mb | 1.708 ft | |||
| 02-mag | 19:30 | n/a | 50° | 2 kt | Missing | 28° | 82° | 24° | 75° | 79% | 1009 mb | 1.737 ft | |||
| 02-mag | 18:30 | n/a | 60° | 6 kt | Missing | 29° | 84° | 24° | 75° | 74% | 1009 mb | 1.857 ft | |||
| 02-mag | 17:30 | n/a | 60° | 7 kt | Missing | 30° | 86° | 23° | 73° | 66% | 1009 mb | 1.977 ft | |||
| 02-mag | 16:30 | n/a | 70° | 7 kt | Missing | 31° | 87° | 23° | 73° | 63% | 1008 mb | 2.127 ft | |||
| 02-mag | 15:30 | n/a | 70° | 9 kt | Missing | 31° | 87° | 24° | 75° | 66% | 1008 mb | 2.127 ft | |||
| 02-mag | 14:30 | n/a | 80° | 6 kt | Missing | 32° | 89° | 23° | 73° | 59% | 1009 mb | 2.217 ft | |||
| 02-mag | 13:30 | n/a | 90° | 6 kt | Missing | 32° | 89° | 23° | 73° | 59% | 1009 mb | 2.217 ft | |||
| 02-mag | 12:30 | n/a | 90° | 7 kt | Missing | 32° | 89° | 24° | 75° | 63% | 1010 mb | 2.188 ft | |||
| 02-mag | 11:30 | n/a | 100° | 6 kt | Missing | 31° | 87° | 22° | 71° | 59% | 1011 mb | 2.038 ft | |||
| 02-mag | 10:30 | n/a | 110° | 7 kt | Missing | 30° | 86° | 23° | 73° | 66% | 1012 mb | 1.889 ft | |||
| 02-mag | 09:30 | n/a | 110° | 6 kt | Missing | 29° | 84° | 24° | 75° | 74% | 1011 mb | 1.798 ft | |||
| 02-mag | 08:30 | n/a | 120° | 6 kt | Missing | 28° | 82° | 24° | 75° | 79% | 1011 mb | 1.678 ft | |||
| 02-mag | 07:30 | n/a | 150° | 6 kt | Missing | 25° | 77° | 24° | 75° | 94% | 1011 mb | 1.318 ft | |||
| 02-mag | 06:30 | n/a | 150° | 5 kt | Missing | 24° | 75° | 23° | 73° | 94% | 1011 mb | 1.198 ft | |||
| 02-mag | 05:30 | n/a | 140° | 5 kt | Missing | 24° | 75° | 23° | 73° | 94% | 1010 mb | 1.228 ft | |||
| 02-mag | 04:30 | n/a | 130° | 4 kt | Missing | 25° | 77° | 23° | 73° | 89% | 1010 mb | 1.348 ft | |||
| 02-mag | 03:30 | n/a | 150° | 4 kt | Missing | 25° | 77° | 23° | 73° | 89% | 1010 mb | 1.348 ft | |||
| 02-mag | 02:30 | n/a | 140° | 2 kt | Missing | 24° | 75° | 23° | 73° | 94% | 1010 mb | 1.228 ft | |||
| 02-mag | 01:30 | n/a | 140° | 5 kt | Missing | 25° | 77° | 23° | 73° | 89% | 1011 mb | 1.318 ft | |||
| 02-mag | 00:30 | n/a | 150° | 6 kt | Missing | 25° | 77° | 23° | 73° | 89% | 1011 mb | 1.318 ft |
Accedi
| Il tuo browser non è supportato. fai l'upgrade del tuo browser |
